« Back
NWS Peachtree City, Ga » Text Product » AHN Terminal Aerodrome Forecast


Printer-friendly Version
Current Version              Previous Versions:   1  2  3  4  5  6  7  8  9  

Terminal Aerodrome Forecast

158
FTUS42 KFFC 251120
TAFAHN
TAF
KAHN 251120Z 2512/2612 00000KT 5SM BR FEW040
     FM251300 VRB03KT P6SM SCT040
     FM251700 VRB03KT P6SM SCT050 SCT250
     FM260100 00000KT P6SM SCT250
     FM260800 00000KT 5SM BR SCT250=



USA.gov is the U.S. government's official web portal to all federal, state and local government web resources and services.